sensor_id;sensor_type;location;lat;lon;timestamp;P1;durP1;ratioP1;P2;durP2;ratioP2
12721;SDS011;6425;50.316;8.114;2023-06-04T00:00:00;5.1;;;1.3;;
12721;SDS011;6425;50.316;8.114;2023-06-04T00:03:00;2;;;1.2;;
12721;SDS011;6425;50.316;8.114;2023-06-04T00:06:00;2;;;1.2;;
12721;SDS011;6425;50.316;8.114;2023-06-04T00:09:00;3.3;;;1.3;;
12721;SDS011;6425;50.316;8.114;2023-06-04T00:12:00;3.3;;;1.3;;
12721;SDS011;6425;50.316;8.114;2023-06-04T00:15:00;1.7;;;1;;
12721;SDS011;6425;50.316;8.114;2023-06-04T00:18:00;2.2;;;1.1;;
12721;SDS011;6425;50.316;8.114;2023-06-04T00:21:00;2.2;;;1.1;;
12721;SDS011;6425;50.316;8.114;2023-06-04T00:24:00;1.2;;;1.1;;
12721;SDS011;6425;50.316;8.114;2023-06-04T00:27:00;1.2;;;1.1;;
12721;SDS011;6425;50.316;8.114;2023-06-04T00:30:00;2.8;;;1;;
12721;SDS011;6425;50.316;8.114;2023-06-04T00:33:00;2.3;;;1.5;;
12721;SDS011;6425;50.316;8.114;2023-06-04T00:36:00;2.3;;;1.5;;
12721;SDS011;6425;50.316;8.114;2023-06-04T00:39:00;3.1;;;1.5;;
12721;SDS011;6425;50.316;8.114;2023-06-04T00:42:00;3.1;;;1.5;;
12721;SDS011;6425;50.316;8.114;2023-06-04T00:45:00;3;;;1.6;;
12721;SDS011;6425;50.316;8.114;2023-06-04T00:48:00;2.1;;;1.3;;
12721;SDS011;6425;50.316;8.114;2023-06-04T00:51:00;2.1;;;1.3;;
12721;SDS011;6425;50.316;8.114;2023-06-04T00:54:00;2.7;;;1.3;;
12721;SDS011;6425;50.316;8.114;2023-06-04T00:57:00;4.6;;;1.4;;
12721;SDS011;6425;50.316;8.114;2023-06-04T01:00:00;4.6;;;1.4;;
12721;SDS011;6425;50.316;8.114;2023-06-04T01:03:00;4.5;;;1.3;;
12721;SDS011;6425;50.316;8.114;2023-06-04T01:06:01;4.5;;;1.3;;
12721;SDS011;6425;50.316;8.114;2023-06-04T01:09:00;3.7;;;1.8;;
12721;SDS011;6425;50.316;8.114;2023-06-04T01:12:03;3.2;;;1.6;;
12721;SDS011;6425;50.316;8.114;2023-06-04T01:15:00;3.2;;;1.6;;
12721;SDS011;6425;50.316;8.114;2023-06-04T01:18:00;3.6;;;1.8;;
12721;SDS011;6425;50.316;8.114;2023-06-04T01:21:00;3.6;;;1.8;;
12721;SDS011;6425;50.316;8.114;2023-06-04T01:24:00;2.7;;;1.9;;
12721;SDS011;6425;50.316;8.114;2023-06-04T01:27:00;4.3;;;3;;
12721;SDS011;6425;50.316;8.114;2023-06-04T01:30:00;4.3;;;3;;
12721;SDS011;6425;50.316;8.114;2023-06-04T01:33:00;3.1;;;1.5;;
12721;SDS011;6425;50.316;8.114;2023-06-04T01:36:00;3.1;;;1.5;;
12721;SDS011;6425;50.316;8.114;2023-06-04T01:39:00;3;;;1.3;;
12721;SDS011;6425;50.316;8.114;2023-06-04T01:42:00;4.7;;;1.5;;
12721;SDS011;6425;50.316;8.114;2023-06-04T01:45:00;4.7;;;1.5;;
12721;SDS011;6425;50.316;8.114;2023-06-04T01:48:00;1.4;;;1.3;;
12721;SDS011;6425;50.316;8.114;2023-06-04T01:51:00;1.4;;;1.3;;
12721;SDS011;6425;50.316;8.114;2023-06-04T01:54:00;2.3;;;2.1;;
12721;SDS011;6425;50.316;8.114;2023-06-04T01:57:00;4.2;;;2.4;;
12721;SDS011;6425;50.316;8.114;2023-06-04T02:00:00;4.2;;;2.4;;
12721;SDS011;6425;50.316;8.114;2023-06-04T02:03:00;2.6;;;2;;
12721;SDS011;6425;50.316;8.114;2023-06-04T02:06:00;2.6;;;2;;
12721;SDS011;6425;50.316;8.114;2023-06-04T02:09:00;6.9;;;1.4;;
12721;SDS011;6425;50.316;8.114;2023-06-04T02:12:00;2.4;;;2.3;;
12721;SDS011;6425;50.316;8.114;2023-06-04T02:15:00;2.4;;;2.3;;
12721;SDS011;6425;50.316;8.114;2023-06-04T02:18:10;3.1;;;2.1;;
12721;SDS011;6425;50.316;8.114;2023-06-04T02:21:00;3.1;;;2.1;;
12721;SDS011;6425;50.316;8.114;2023-06-04T02:24:00;2.9;;;1.4;;
12721;SDS011;6425;50.316;8.114;2023-06-04T02:27:00;2.3;;;1.3;;
12721;SDS011;6425;50.316;8.114;2023-06-04T02:30:00;2.3;;;1.3;;
12721;SDS011;6425;50.316;8.114;2023-06-04T02:33:00;3;;;2.1;;
12721;SDS011;6425;50.316;8.114;2023-06-04T02:36:00;3;;;2.1;;
12721;SDS011;6425;50.316;8.114;2023-06-04T02:39:00;1.7;;;1.3;;
12721;SDS011;6425;50.316;8.114;2023-06-04T02:42:00;2.9;;;1.9;;
12721;SDS011;6425;50.316;8.114;2023-06-04T02:45:00;2.9;;;1.9;;
12721;SDS011;6425;50.316;8.114;2023-06-04T02:48:00;2.9;;;2.2;;
12721;SDS011;6425;50.316;8.114;2023-06-04T02:51:00;2.9;;;2.2;;
12721;SDS011;6425;50.316;8.114;2023-06-04T02:54:00;3.1;;;1.2;;
12721;SDS011;6425;50.316;8.114;2023-06-04T02:57:00;3.9;;;2.2;;
12721;SDS011;6425;50.316;8.114;2023-06-04T03:00:00;3.9;;;2.2;;
12721;SDS011;6425;50.316;8.114;2023-06-04T03:03:00;2.7;;;1.3;;
12721;SDS011;6425;50.316;8.114;2023-06-04T03:06:00;2.7;;;1.3;;
12721;SDS011;6425;50.316;8.114;2023-06-04T03:09:00;2.4;;;2.1;;
12721;SDS011;6425;50.316;8.114;2023-06-04T03:12:00;3.2;;;1.6;;
12721;SDS011;6425;50.316;8.114;2023-06-04T03:15:00;3.2;;;1.6;;
12721;SDS011;6425;50.316;8.114;2023-06-04T03:18:00;2.7;;;1.9;;
12721;SDS011;6425;50.316;8.114;2023-06-04T03:21:00;2.7;;;1.9;;
12721;SDS011;6425;50.316;8.114;2023-06-04T03:24:00;3.8;;;1.8;;
12721;SDS011;6425;50.316;8.114;2023-06-04T03:27:00;2.8;;;1.7;;
12721;SDS011;6425;50.316;8.114;2023-06-04T03:30:00;2.8;;;1.7;;
12721;SDS011;6425;50.316;8.114;2023-06-04T03:33:00;3.3;;;0.9;;
12721;SDS011;6425;50.316;8.114;2023-06-04T03:36:00;3.3;;;0.9;;
12721;SDS011;6425;50.316;8.114;2023-06-04T03:39:00;3.2;;;2.9;;
12721;SDS011;6425;50.316;8.114;2023-06-04T03:42:00;2.5;;;1.3;;
12721;SDS011;6425;50.316;8.114;2023-06-04T03:45:00;2.5;;;1.3;;
12721;SDS011;6425;50.316;8.114;2023-06-04T03:48:00;3.3;;;2.5;;
12721;SDS011;6425;50.316;8.114;2023-06-04T03:51:00;2.9;;;2.1;;
12721;SDS011;6425;50.316;8.114;2023-06-04T03:54:00;2;;;0.9;;
12721;SDS011;6425;50.316;8.114;2023-06-04T03:57:00;4;;;2.4;;
12721;SDS011;6425;50.316;8.114;2023-06-04T04:00:00;4;;;2.4;;
12721;SDS011;6425;50.316;8.114;2023-06-04T04:03:00;2.2;;;1.2;;
12721;SDS011;6425;50.316;8.114;2023-06-04T04:06:00;2.6;;;2.4;;
12721;SDS011;6425;50.316;8.114;2023-06-04T04:09:00;2.6;;;2.4;;
12721;SDS011;6425;50.316;8.114;2023-06-04T04:12:00;2.7;;;1.3;;
12721;SDS011;6425;50.316;8.114;2023-06-04T04:15:00;2.7;;;1.3;;
12721;SDS011;6425;50.316;8.114;2023-06-04T04:18:00;1.9;;;1.8;;
12721;SDS011;6425;50.316;8.114;2023-06-04T04:21:00;5.3;;;1.7;;
12721;SDS011;6425;50.316;8.114;2023-06-04T04:24:00;5.3;;;1.7;;
12721;SDS011;6425;50.316;8.114;2023-06-04T04:27:00;4;;;2;;
12721;SDS011;6425;50.316;8.114;2023-06-04T04:30:00;4;;;2;;
12721;SDS011;6425;50.316;8.114;2023-06-04T04:33:00;3.9;;;2.3;;
12721;SDS011;6425;50.316;8.114;2023-06-04T04:36:00;4.3;;;1.8;;
12721;SDS011;6425;50.316;8.114;2023-06-04T04:39:00;4.3;;;1.8;;
12721;SDS011;6425;50.316;8.114;2023-06-04T04:42:00;3.9;;;3.5;;
12721;SDS011;6425;50.316;8.114;2023-06-04T04:45:00;3.9;;;3.5;;
12721;SDS011;6425;50.316;8.114;2023-06-04T04:48:00;2.9;;;1.8;;
12721;SDS011;6425;50.316;8.114;2023-06-04T04:51:00;4;;;2.2;;
12721;SDS011;6425;50.316;8.114;2023-06-04T04:54:00;4;;;2.2;;
12721;SDS011;6425;50.316;8.114;2023-06-04T04:57:00;3.6;;;3.4;;
12721;SDS011;6425;50.316;8.114;2023-06-04T05:00:00;3.6;;;3.4;;
12721;SDS011;6425;50.316;8.114;2023-06-04T05:03:00;2.6;;;2.4;;
12721;SDS011;6425;50.316;8.114;2023-06-04T05:06:00;5.1;;;1.9;;
12721;SDS011;6425;50.316;8.114;2023-06-04T05:09:00;5.1;;;1.9;;
12721;SDS011;6425;50.316;8.114;2023-06-04T05:12:00;4.3;;;2.4;;
12721;SDS011;6425;50.316;8.114;2023-06-04T05:15:00;4.3;;;2.4;;
12721;SDS011;6425;50.316;8.114;2023-06-04T05:18:00;4.5;;;3.7;;
12721;SDS011;6425;50.316;8.114;2023-06-04T05:21:00;10.1;;;3.8;;
12721;SDS011;6425;50.316;8.114;2023-06-04T05:24:00;10.1;;;3.8;;
12721;SDS011;6425;50.316;8.114;2023-06-04T05:27:00;6.2;;;1.8;;
12721;SDS011;6425;50.316;8.114;2023-06-04T05:30:00;6.2;;;1.8;;
12721;SDS011;6425;50.316;8.114;2023-06-04T05:33:00;2.7;;;2.1;;
12721;SDS011;6425;50.316;8.114;2023-06-04T05:36:00;3.3;;;3;;
12721;SDS011;6425;50.316;8.114;2023-06-04T05:39:00;3.3;;;3;;
12721;SDS011;6425;50.316;8.114;2023-06-04T05:42:00;4.5;;;2.7;;
12721;SDS011;6425;50.316;8.114;2023-06-04T05:45:00;4.5;;;2.7;;
12721;SDS011;6425;50.316;8.114;2023-06-04T05:48:00;6.7;;;2.2;;
12721;SDS011;6425;50.316;8.114;2023-06-04T05:51:00;8.2;;;3.6;;
12721;SDS011;6425;50.316;8.114;2023-06-04T05:54:00;8.2;;;3.6;;
12721;SDS011;6425;50.316;8.114;2023-06-04T05:57:00;3.2;;;3;;
12721;SDS011;6425;50.316;8.114;2023-06-04T06:00:00;3.2;;;3;;
12721;SDS011;6425;50.316;8.114;2023-06-04T06:03:00;3;;;1.5;;
12721;SDS011;6425;50.316;8.114;2023-06-04T06:06:00;4.1;;;3.2;;
12721;SDS011;6425;50.316;8.114;2023-06-04T06:09:00;4.1;;;3.2;;
12721;SDS011;6425;50.316;8.114;2023-06-04T06:12:00;2.6;;;2.4;;
12721;SDS011;6425;50.316;8.114;2023-06-04T06:15:00;2.6;;;2.4;;
12721;SDS011;6425;50.316;8.114;2023-06-04T06:18:00;2.5;;;1.6;;
12721;SDS011;6425;50.316;8.114;2023-06-04T06:21:00;6.3;;;3.3;;
12721;SDS011;6425;50.316;8.114;2023-06-04T06:24:00;6.3;;;3.3;;
12721;SDS011;6425;50.316;8.114;2023-06-04T06:27:00;2.8;;;2;;
12721;SDS011;6425;50.316;8.114;2023-06-04T06:30:00;2.8;;;2;;
12721;SDS011;6425;50.316;8.114;2023-06-04T06:33:00;2.4;;;1.7;;
12721;SDS011;6425;50.316;8.114;2023-06-04T06:36:00;3.3;;;3;;
12721;SDS011;6425;50.316;8.114;2023-06-04T06:39:00;3.3;;;3;;
12721;SDS011;6425;50.316;8.114;2023-06-04T06:42:00;2.8;;;1.5;;
12721;SDS011;6425;50.316;8.114;2023-06-04T06:45:00;2.8;;;1.5;;
12721;SDS011;6425;50.316;8.114;2023-06-04T06:48:00;4.9;;;3.3;;
12721;SDS011;6425;50.316;8.114;2023-06-04T06:51:00;3.3;;;2;;
12721;SDS011;6425;50.316;8.114;2023-06-04T06:54:00;3.3;;;2;;
12721;SDS011;6425;50.316;8.114;2023-06-04T06:57:00;6.4;;;1.8;;
12721;SDS011;6425;50.316;8.114;2023-06-04T07:00:00;6.4;;;1.8;;
12721;SDS011;6425;50.316;8.114;2023-06-04T07:03:00;6;;;3.6;;
12721;SDS011;6425;50.316;8.114;2023-06-04T07:06:00;2.5;;;1.8;;
12721;SDS011;6425;50.316;8.114;2023-06-04T07:09:00;2.5;;;1.8;;
12721;SDS011;6425;50.316;8.114;2023-06-04T07:12:00;2.6;;;1.5;;
12721;SDS011;6425;50.316;8.114;2023-06-04T07:15:00;2.6;;;1.5;;
12721;SDS011;6425;50.316;8.114;2023-06-04T07:18:00;2;;;1.8;;
12721;SDS011;6425;50.316;8.114;2023-06-04T07:21:00;3.4;;;3.1;;
12721;SDS011;6425;50.316;8.114;2023-06-04T07:24:00;3.4;;;3.1;;
12721;SDS011;6425;50.316;8.114;2023-06-04T07:27:00;3.5;;;3.2;;
12721;SDS011;6425;50.316;8.114;2023-06-04T07:30:00;3.5;;;3.2;;
12721;SDS011;6425;50.316;8.114;2023-06-04T07:33:00;3.9;;;2.5;;
12721;SDS011;6425;50.316;8.114;2023-06-04T07:36:00;4;;;1.6;;
12721;SDS011;6425;50.316;8.114;2023-06-04T07:39:00;4;;;1.6;;
12721;SDS011;6425;50.316;8.114;2023-06-04T07:42:00;3.3;;;1.7;;
12721;SDS011;6425;50.316;8.114;2023-06-04T07:45:00;3.6;;;1.7;;
12721;SDS011;6425;50.316;8.114;2023-06-04T07:48:00;4;;;1.8;;
12721;SDS011;6425;50.316;8.114;2023-06-04T07:51:00;2.2;;;2;;
12721;SDS011;6425;50.316;8.114;2023-06-04T07:54:00;2.2;;;2;;
12721;SDS011;6425;50.316;8.114;2023-06-04T07:57:00;2.7;;;2.1;;
12721;SDS011;6425;50.316;8.114;2023-06-04T08:00:00;3;;;2.1;;
12721;SDS011;6425;50.316;8.114;2023-06-04T08:03:00;3;;;2.1;;
12721;SDS011;6425;50.316;8.114;2023-06-04T08:06:00;4.1;;;2.4;;
12721;SDS011;6425;50.316;8.114;2023-06-04T08:09:00;4.1;;;2.4;;
12721;SDS011;6425;50.316;8.114;2023-06-04T08:12:00;2.3;;;1.9;;
12721;SDS011;6425;50.316;8.114;2023-06-04T08:15:00;2.8;;;2;;
12721;SDS011;6425;50.316;8.114;2023-06-04T08:18:00;2.8;;;2;;
12721;SDS011;6425;50.316;8.114;2023-06-04T08:21:00;2.7;;;1.7;;
12721;SDS011;6425;50.316;8.114;2023-06-04T08:24:00;2.7;;;1.7;;
12721;SDS011;6425;50.316;8.114;2023-06-04T08:27:00;3;;;1.3;;
12721;SDS011;6425;50.316;8.114;2023-06-04T08:30:00;4.4;;;2.1;;
12721;SDS011;6425;50.316;8.114;2023-06-04T08:33:00;4.4;;;2.1;;
12721;SDS011;6425;50.316;8.114;2023-06-04T08:36:00;1.8;;;1.4;;
12721;SDS011;6425;50.316;8.114;2023-06-04T08:39:00;1.8;;;1.4;;
12721;SDS011;6425;50.316;8.114;2023-06-04T08:42:00;1.7;;;1.4;;
12721;SDS011;6425;50.316;8.114;2023-06-04T08:45:00;3.1;;;1.7;;
12721;SDS011;6425;50.316;8.114;2023-06-04T08:48:00;3.1;;;1.7;;
12721;SDS011;6425;50.316;8.114;2023-06-04T08:51:00;2.7;;;1.8;;
12721;SDS011;6425;50.316;8.114;2023-06-04T08:54:00;2.7;;;1.8;;
12721;SDS011;6425;50.316;8.114;2023-06-04T08:57:00;4.7;;;2;;
12721;SDS011;6425;50.316;8.114;2023-06-04T09:00:00;4.3;;;2.5;;
12721;SDS011;6425;50.316;8.114;2023-06-04T09:03:00;4.3;;;2.5;;
12721;SDS011;6425;50.316;8.114;2023-06-04T09:06:00;3.7;;;3.4;;
12721;SDS011;6425;50.316;8.114;2023-06-04T09:09:00;3.7;;;3.4;;
12721;SDS011;6425;50.316;8.114;2023-06-04T09:12:00;3.4;;;3.2;;
12721;SDS011;6425;50.316;8.114;2023-06-04T09:15:00;2.4;;;2.3;;
12721;SDS011;6425;50.316;8.114;2023-06-04T09:18:00;2.4;;;2.3;;
12721;SDS011;6425;50.316;8.114;2023-06-04T09:21:00;3.9;;;2.1;;
12721;SDS011;6425;50.316;8.114;2023-06-04T09:24:00;3.9;;;2.1;;
12721;SDS011;6425;50.316;8.114;2023-06-04T09:27:00;2.6;;;1.3;;
12721;SDS011;6425;50.316;8.114;2023-06-04T09:30:00;3.2;;;2.3;;
12721;SDS011;6425;50.316;8.114;2023-06-04T09:33:05;3.2;;;2.3;;
12721;SDS011;6425;50.316;8.114;2023-06-04T09:36:00;4.6;;;1.4;;
12721;SDS011;6425;50.316;8.114;2023-06-04T09:39:00;4.6;;;1.4;;
12721;SDS011;6425;50.316;8.114;2023-06-04T09:42:00;4.2;;;2.6;;
12721;SDS011;6425;50.316;8.114;2023-06-04T09:45:00;3;;;1.6;;
12721;SDS011;6425;50.316;8.114;2023-06-04T09:48:00;3;;;1.6;;
12721;SDS011;6425;50.316;8.114;2023-06-04T09:51:05;2.6;;;2.4;;
12721;SDS011;6425;50.316;8.114;2023-06-04T09:54:00;2.6;;;2.4;;
12721;SDS011;6425;50.316;8.114;2023-06-04T09:57:00;1.7;;;1.4;;
12721;SDS011;6425;50.316;8.114;2023-06-04T10:00:00;1.4;;;1.1;;
12721;SDS011;6425;50.316;8.114;2023-06-04T10:03:01;1.4;;;1.1;;
12721;SDS011;6425;50.316;8.114;2023-06-04T10:06:01;3.4;;;2.3;;
12721;SDS011;6425;50.316;8.114;2023-06-04T10:09:00;3.4;;;2.3;;
12721;SDS011;6425;50.316;8.114;2023-06-04T10:12:00;2.5;;;1.3;;
12721;SDS011;6425;50.316;8.114;2023-06-04T10:15:02;3;;;2.8;;
12721;SDS011;6425;50.316;8.114;2023-06-04T10:18:01;3;;;2.8;;
12721;SDS011;6425;50.316;8.114;2023-06-04T10:21:00;1.9;;;1.7;;
12721;SDS011;6425;50.316;8.114;2023-06-04T10:24:00;1.9;;;1.7;;
12721;SDS011;6425;50.316;8.114;2023-06-04T10:27:00;2.6;;;1.5;;
12721;SDS011;6425;50.316;8.114;2023-06-04T10:30:00;2.3;;;1.6;;
12721;SDS011;6425;50.316;8.114;2023-06-04T10:33:00;2.3;;;1.6;;
12721;SDS011;6425;50.316;8.114;2023-06-04T10:36:10;2.2;;;2;;
12721;SDS011;6425;50.316;8.114;2023-06-04T10:39:00;2.2;;;2;;
12721;SDS011;6425;50.316;8.114;2023-06-04T10:42:00;2;;;1.5;;
12721;SDS011;6425;50.316;8.114;2023-06-04T10:45:00;2.5;;;1.5;;
12721;SDS011;6425;50.316;8.114;2023-06-04T10:48:00;2.5;;;1.5;;
12721;SDS011;6425;50.316;8.114;2023-06-04T10:51:00;3.9;;;2.4;;
12721;SDS011;6425;50.316;8.114;2023-06-04T10:54:00;3.9;;;2.4;;
12721;SDS011;6425;50.316;8.114;2023-06-04T10:57:09;2.5;;;2.3;;
12721;SDS011;6425;50.316;8.114;2023-06-04T11:00:00;2.5;;;2.4;;
12721;SDS011;6425;50.316;8.114;2023-06-04T11:03:00;2.5;;;2.4;;
12721;SDS011;6425;50.316;8.114;2023-06-04T11:06:00;4.3;;;1.9;;
12721;SDS011;6425;50.316;8.114;2023-06-04T11:09:01;4.3;;;1.9;;
12721;SDS011;6425;50.316;8.114;2023-06-04T11:12:00;2;;;1.9;;
12721;SDS011;6425;50.316;8.114;2023-06-04T11:15:00;2.7;;;2.5;;
12721;SDS011;6425;50.316;8.114;2023-06-04T11:18:00;2.7;;;2.5;;
12721;SDS011;6425;50.316;8.114;2023-06-04T11:21:00;2.8;;;2.6;;
12721;SDS011;6425;50.316;8.114;2023-06-04T11:24:00;2.8;;;2.6;;
12721;SDS011;6425;50.316;8.114;2023-06-04T11:27:00;3.5;;;2.5;;
12721;SDS011;6425;50.316;8.114;2023-06-04T11:30:00;2.6;;;2.2;;
12721;SDS011;6425;50.316;8.114;2023-06-04T11:33:00;2.6;;;2.2;;
12721;SDS011;6425;50.316;8.114;2023-06-04T11:36:00;4.3;;;2.4;;
12721;SDS011;6425;50.316;8.114;2023-06-04T11:39:00;4.3;;;2.4;;
12721;SDS011;6425;50.316;8.114;2023-06-04T11:42:03;3.3;;;1.3;;
12721;SDS011;6425;50.316;8.114;2023-06-04T11:45:00;4.9;;;1.8;;
12721;SDS011;6425;50.316;8.114;2023-06-04T11:48:00;4.9;;;1.8;;
12721;SDS011;6425;50.316;8.114;2023-06-04T11:51:04;2.7;;;2.5;;
12721;SDS011;6425;50.316;8.114;2023-06-04T11:54:00;2.7;;;2.5;;
12721;SDS011;6425;50.316;8.114;2023-06-04T11:57:00;3.6;;;1.8;;
12721;SDS011;6425;50.316;8.114;2023-06-04T12:00:00;3.7;;;2.2;;
12721;SDS011;6425;50.316;8.114;2023-06-04T12:03:00;3.7;;;2.2;;
12721;SDS011;6425;50.316;8.114;2023-06-04T12:06:08;2.9;;;2.7;;
12721;SDS011;6425;50.316;8.114;2023-06-04T12:09:00;2.9;;;2.7;;
12721;SDS011;6425;50.316;8.114;2023-06-04T12:12:00;2.3;;;1.5;;
12721;SDS011;6425;50.316;8.114;2023-06-04T12:15:00;1.7;;;1.6;;
12721;SDS011;6425;50.316;8.114;2023-06-04T12:18:00;1.7;;;1.6;;
12721;SDS011;6425;50.316;8.114;2023-06-04T12:21:00;3.1;;;2.4;;
12721;SDS011;6425;50.316;8.114;2023-06-04T12:24:07;3.1;;;2.4;;
12721;SDS011;6425;50.316;8.114;2023-06-04T12:27:01;3.5;;;1.8;;
12721;SDS011;6425;50.316;8.114;2023-06-04T12:30:00;4;;;2.7;;
12721;SDS011;6425;50.316;8.114;2023-06-04T12:33:00;4;;;2.7;;
12721;SDS011;6425;50.316;8.114;2023-06-04T12:36:00;2.2;;;1.7;;
12721;SDS011;6425;50.316;8.114;2023-06-04T12:39:00;2.2;;;1.7;;
12721;SDS011;6425;50.316;8.114;2023-06-04T12:42:00;2;;;1.6;;
12721;SDS011;6425;50.316;8.114;2023-06-04T12:45:00;2.7;;;2.5;;
12721;SDS011;6425;50.316;8.114;2023-06-04T12:48:00;2.7;;;2.5;;
12721;SDS011;6425;50.316;8.114;2023-06-04T12:51:00;3.4;;;1.9;;
12721;SDS011;6425;50.316;8.114;2023-06-04T12:54:00;3.4;;;1.9;;
12721;SDS011;6425;50.316;8.114;2023-06-04T12:57:00;4.1;;;1.8;;
12721;SDS011;6425;50.316;8.114;2023-06-04T13:00:00;2.7;;;1.8;;
12721;SDS011;6425;50.316;8.114;2023-06-04T13:03:00;2.7;;;1.8;;
12721;SDS011;6425;50.316;8.114;2023-06-04T13:06:00;2.9;;;2.4;;
12721;SDS011;6425;50.316;8.114;2023-06-04T13:09:00;2.9;;;2.4;;
12721;SDS011;6425;50.316;8.114;2023-06-04T13:12:00;5.5;;;3.8;;
12721;SDS011;6425;50.316;8.114;2023-06-04T13:15:00;3.7;;;1.9;;
12721;SDS011;6425;50.316;8.114;2023-06-04T13:18:00;3.7;;;1.9;;
12721;SDS011;6425;50.316;8.114;2023-06-04T13:21:00;4.5;;;3.2;;
12721;SDS011;6425;50.316;8.114;2023-06-04T13:24:00;4.5;;;3.2;;
12721;SDS011;6425;50.316;8.114;2023-06-04T13:27:00;2.9;;;1.7;;
12721;SDS011;6425;50.316;8.114;2023-06-04T13:30:00;2.2;;;1.6;;
12721;SDS011;6425;50.316;8.114;2023-06-04T13:33:00;2.2;;;1.6;;
12721;SDS011;6425;50.316;8.114;2023-06-04T13:36:00;3.2;;;2.9;;
12721;SDS011;6425;50.316;8.114;2023-06-04T13:39:00;3.2;;;2.9;;
12721;SDS011;6425;50.316;8.114;2023-06-04T13:42:00;2.2;;;1.8;;
12721;SDS011;6425;50.316;8.114;2023-06-04T13:45:00;3.1;;;2.8;;
12721;SDS011;6425;50.316;8.114;2023-06-04T13:48:00;3.1;;;2.8;;
12721;SDS011;6425;50.316;8.114;2023-06-04T13:51:00;3.5;;;3.2;;
12721;SDS011;6425;50.316;8.114;2023-06-04T13:54:00;3.5;;;3.2;;
12721;SDS011;6425;50.316;8.114;2023-06-04T13:57:01;4.2;;;1.9;;
12721;SDS011;6425;50.316;8.114;2023-06-04T14:00:00;3.3;;;3.1;;
12721;SDS011;6425;50.316;8.114;2023-06-04T14:03:00;3.3;;;3.1;;
12721;SDS011;6425;50.316;8.114;2023-06-04T14:06:00;2.6;;;2.4;;
12721;SDS011;6425;50.316;8.114;2023-06-04T14:09:00;2.6;;;2.4;;
12721;SDS011;6425;50.316;8.114;2023-06-04T14:12:00;3.6;;;3.3;;
12721;SDS011;6425;50.316;8.114;2023-06-04T14:15:00;3.2;;;2.2;;
12721;SDS011;6425;50.316;8.114;2023-06-04T14:18:00;3.2;;;2.2;;
12721;SDS011;6425;50.316;8.114;2023-06-04T14:21:00;3.5;;;2.8;;
12721;SDS011;6425;50.316;8.114;2023-06-04T14:24:00;3.5;;;2.8;;
12721;SDS011;6425;50.316;8.114;2023-06-04T14:27:00;3.9;;;2.2;;
12721;SDS011;6425;50.316;8.114;2023-06-04T14:30:00;4.9;;;3.2;;
12721;SDS011;6425;50.316;8.114;2023-06-04T14:33:00;4.9;;;3.2;;
12721;SDS011;6425;50.316;8.114;2023-06-04T14:36:00;3.7;;;3.4;;
12721;SDS011;6425;50.316;8.114;2023-06-04T14:39:00;3.7;;;3.4;;
12721;SDS011;6425;50.316;8.114;2023-06-04T14:42:00;3.4;;;2.6;;
12721;SDS011;6425;50.316;8.114;2023-06-04T14:45:00;6.1;;;3.9;;
12721;SDS011;6425;50.316;8.114;2023-06-04T14:48:00;6.1;;;3.9;;
12721;SDS011;6425;50.316;8.114;2023-06-04T14:51:00;5.3;;;2.8;;
12721;SDS011;6425;50.316;8.114;2023-06-04T14:54:00;5.3;;;2.8;;
12721;SDS011;6425;50.316;8.114;2023-06-04T14:57:00;3.1;;;2.9;;
12721;SDS011;6425;50.316;8.114;2023-06-04T15:00:00;3.6;;;3.3;;
12721;SDS011;6425;50.316;8.114;2023-06-04T15:03:00;3.6;;;3.3;;
12721;SDS011;6425;50.316;8.114;2023-06-04T15:06:00;5.2;;;4.8;;
12721;SDS011;6425;50.316;8.114;2023-06-04T15:09:00;5.2;;;4.8;;
12721;SDS011;6425;50.316;8.114;2023-06-04T15:12:00;5.5;;;4.9;;
12721;SDS011;6425;50.316;8.114;2023-06-04T15:15:00;5.1;;;4.7;;
12721;SDS011;6425;50.316;8.114;2023-06-04T15:18:00;5.1;;;4.7;;
12721;SDS011;6425;50.316;8.114;2023-06-04T15:21:00;5;;;4.5;;
12721;SDS011;6425;50.316;8.114;2023-06-04T15:24:00;5;;;4.5;;
12721;SDS011;6425;50.316;8.114;2023-06-04T15:27:00;5.7;;;5.2;;
12721;SDS011;6425;50.316;8.114;2023-06-04T15:30:00;5.3;;;3.7;;
12721;SDS011;6425;50.316;8.114;2023-06-04T15:33:00;5.3;;;3.7;;
12721;SDS011;6425;50.316;8.114;2023-06-04T15:36:00;4.1;;;3.7;;
12721;SDS011;6425;50.316;8.114;2023-06-04T15:39:00;4.2;;;3.7;;
12721;SDS011;6425;50.316;8.114;2023-06-04T15:42:00;4.3;;;3.7;;
12721;SDS011;6425;50.316;8.114;2023-06-04T15:45:00;4.6;;;4.2;;
12721;SDS011;6425;50.316;8.114;2023-06-04T15:48:00;4.6;;;4.2;;
12721;SDS011;6425;50.316;8.114;2023-06-04T15:51:00;8.2;;;5.9;;
12721;SDS011;6425;50.316;8.114;2023-06-04T15:54:00;6.8;;;4.4;;
12721;SDS011;6425;50.316;8.114;2023-06-04T15:57:00;6.4;;;3.9;;
12721;SDS011;6425;50.316;8.114;2023-06-04T16:00:00;5.4;;;5.1;;
12721;SDS011;6425;50.316;8.114;2023-06-04T16:03:00;5.4;;;5.1;;
12721;SDS011;6425;50.316;8.114;2023-06-04T16:06:00;3.9;;;3.5;;
12721;SDS011;6425;50.316;8.114;2023-06-04T16:09:00;4.6;;;3.9;;
12721;SDS011;6425;50.316;8.114;2023-06-04T16:12:00;4.6;;;3.9;;
12721;SDS011;6425;50.316;8.114;2023-06-04T16:15:00;4.2;;;3.8;;
12721;SDS011;6425;50.316;8.114;2023-06-04T16:18:00;4.2;;;3.8;;
12721;SDS011;6425;50.316;8.114;2023-06-04T16:21:00;4.2;;;3.8;;
12721;SDS011;6425;50.316;8.114;2023-06-04T16:24:00;5.8;;;5.4;;
12721;SDS011;6425;50.316;8.114;2023-06-04T16:27:00;5.8;;;5.4;;
12721;SDS011;6425;50.316;8.114;2023-06-04T16:30:00;4.4;;;4;;
12721;SDS011;6425;50.316;8.114;2023-06-04T16:33:00;4.4;;;4;;
12721;SDS011;6425;50.316;8.114;2023-06-04T16:36:00;4.8;;;3.9;;
12721;SDS011;6425;50.316;8.114;2023-06-04T16:39:00;6;;;5.4;;
12721;SDS011;6425;50.316;8.114;2023-06-04T16:42:00;6;;;5.4;;
12721;SDS011;6425;50.316;8.114;2023-06-04T16:45:00;4.7;;;4.3;;
12721;SDS011;6425;50.316;8.114;2023-06-04T16:48:00;4.7;;;4.3;;
12721;SDS011;6425;50.316;8.114;2023-06-04T16:51:00;3.9;;;3.6;;
12721;SDS011;6425;50.316;8.114;2023-06-04T16:54:00;4.9;;;4;;
12721;SDS011;6425;50.316;8.114;2023-06-04T16:57:00;4.9;;;4;;
12721;SDS011;6425;50.316;8.114;2023-06-04T17:00:00;4.6;;;4.2;;
12721;SDS011;6425;50.316;8.114;2023-06-04T17:03:00;4.6;;;4.2;;
12721;SDS011;6425;50.316;8.114;2023-06-04T17:06:00;7.2;;;5.6;;
12721;SDS011;6425;50.316;8.114;2023-06-04T17:09:00;5.4;;;4.9;;
12721;SDS011;6425;50.316;8.114;2023-06-04T17:12:00;5.4;;;4.9;;
12721;SDS011;6425;50.316;8.114;2023-06-04T17:15:00;5.7;;;5.1;;
12721;SDS011;6425;50.316;8.114;2023-06-04T17:18:00;5.7;;;5.1;;
12721;SDS011;6425;50.316;8.114;2023-06-04T17:21:00;5.5;;;5;;
12721;SDS011;6425;50.316;8.114;2023-06-04T17:24:00;5.8;;;3.6;;
12721;SDS011;6425;50.316;8.114;2023-06-04T17:27:00;5.8;;;3.6;;
12721;SDS011;6425;50.316;8.114;2023-06-04T17:30:00;5.6;;;5.1;;
12721;SDS011;6425;50.316;8.114;2023-06-04T17:33:00;5.6;;;5.1;;
12721;SDS011;6425;50.316;8.114;2023-06-04T17:36:00;3.5;;;3.2;;
12721;SDS011;6425;50.316;8.114;2023-06-04T17:39:00;5.4;;;5;;
12721;SDS011;6425;50.316;8.114;2023-06-04T17:42:00;5.4;;;5;;
12721;SDS011;6425;50.316;8.114;2023-06-04T17:45:01;5.4;;;4.8;;
12721;SDS011;6425;50.316;8.114;2023-06-04T17:48:00;5.4;;;4.8;;
12721;SDS011;6425;50.316;8.114;2023-06-04T17:51:00;4.2;;;3.7;;
12721;SDS011;6425;50.316;8.114;2023-06-04T17:54:00;4.1;;;3.8;;
12721;SDS011;6425;50.316;8.114;2023-06-04T17:57:00;4.1;;;3.8;;
12721;SDS011;6425;50.316;8.114;2023-06-04T18:00:00;4.7;;;4.3;;
12721;SDS011;6425;50.316;8.114;2023-06-04T18:03:00;4.7;;;4.3;;
12721;SDS011;6425;50.316;8.114;2023-06-04T18:06:00;3.1;;;2.5;;
12721;SDS011;6425;50.316;8.114;2023-06-04T18:09:00;2.7;;;2.5;;
12721;SDS011;6425;50.316;8.114;2023-06-04T18:12:00;2.7;;;2.5;;
12721;SDS011;6425;50.316;8.114;2023-06-04T18:15:00;4.3;;;2.5;;
12721;SDS011;6425;50.316;8.114;2023-06-04T18:18:00;4.3;;;2.5;;
12721;SDS011;6425;50.316;8.114;2023-06-04T18:21:00;4.3;;;2.1;;
12721;SDS011;6425;50.316;8.114;2023-06-04T18:24:00;3.3;;;2.9;;
12721;SDS011;6425;50.316;8.114;2023-06-04T18:27:00;3.3;;;2.9;;
12721;SDS011;6425;50.316;8.114;2023-06-04T18:30:00;2.2;;;2;;
12721;SDS011;6425;50.316;8.114;2023-06-04T18:33:00;2.2;;;2;;
12721;SDS011;6425;50.316;8.114;2023-06-04T18:36:00;5.5;;;3.5;;
12721;SDS011;6425;50.316;8.114;2023-06-04T18:39:00;3.2;;;2.9;;
12721;SDS011;6425;50.316;8.114;2023-06-04T18:42:00;3.2;;;2.9;;
12721;SDS011;6425;50.316;8.114;2023-06-04T18:45:00;3.7;;;3.1;;
12721;SDS011;6425;50.316;8.114;2023-06-04T18:48:00;3.7;;;3.1;;
12721;SDS011;6425;50.316;8.114;2023-06-04T18:51:00;2.5;;;2.4;;
12721;SDS011;6425;50.316;8.114;2023-06-04T18:54:00;2.5;;;2.3;;
12721;SDS011;6425;50.316;8.114;2023-06-04T18:57:00;2.5;;;2.3;;
12721;SDS011;6425;50.316;8.114;2023-06-04T19:00:00;1.6;;;1.5;;